sensor_id;sensor_type;location;lat;lon;timestamp;pressure;altitude;pressure_sealevel;temperature;humidity
44079;BME280;29744;49.078;12.878;2023-02-02T00:02:01;96324.09;;;15.32;32.30
44079;BME280;29744;49.078;12.878;2023-02-02T00:07:02;96328.56;;;15.28;32.28
44079;BME280;29744;49.078;12.878;2023-02-02T00:12:04;96339.25;;;15.25;32.11
44079;BME280;29744;49.078;12.878;2023-02-02T00:17:08;96342.94;;;15.20;31.99
44079;BME280;29744;49.078;12.878;2023-02-02T00:22:09;96347.88;;;15.18;32.04
44079;BME280;29744;49.078;12.878;2023-02-02T00:27:09;96362.84;;;15.16;32.46
44079;BME280;29744;49.078;12.878;2023-02-02T00:32:09;96368.09;;;15.12;32.55
44079;BME280;29744;49.078;12.878;2023-02-02T00:37:10;96391.97;;;15.10;32.10
44079;BME280;29744;49.078;12.878;2023-02-02T00:42:10;96413.44;;;15.06;32.03
44079;BME280;29744;49.078;12.878;2023-02-02T00:47:11;96372.00;;;15.02;32.01
44079;BME280;29744;49.078;12.878;2023-02-02T00:52:11;96374.53;;;14.99;32.63
44079;BME280;29744;49.078;12.878;2023-02-02T00:57:13;96390.25;;;14.97;32.14
44079;BME280;29744;49.078;12.878;2023-02-02T01:02:13;96399.03;;;14.94;32.19
44079;BME280;29744;49.078;12.878;2023-02-02T01:07:13;96400.47;;;14.91;32.29
44079;BME280;29744;49.078;12.878;2023-02-02T01:12:14;96420.81;;;14.89;32.70
44079;BME280;29744;49.078;12.878;2023-02-02T01:17:14;96426.06;;;14.85;32.48
44079;BME280;29744;49.078;12.878;2023-02-02T01:22:15;96441.81;;;14.83;32.36
44079;BME280;29744;49.078;12.878;2023-02-02T01:27:15;96441.66;;;14.79;32.71
44079;BME280;29744;49.078;12.878;2023-02-02T01:32:15;96439.28;;;14.78;32.89
44079;BME280;29744;49.078;12.878;2023-02-02T01:37:16;96439.94;;;14.75;32.70
44079;BME280;29744;49.078;12.878;2023-02-02T01:42:21;96429.00;;;14.71;32.88
44079;BME280;29744;49.078;12.878;2023-02-02T01:47:25;96431.22;;;14.69;32.48
44079;BME280;29744;49.078;12.878;2023-02-02T01:52:29;96430.75;;;14.67;32.80
44079;BME280;29744;49.078;12.878;2023-02-02T01:57:41;96411.72;;;14.64;33.00
44079;BME280;29744;49.078;12.878;2023-02-02T02:02:45;96402.38;;;14.61;33.02
44079;BME280;29744;49.078;12.878;2023-02-02T02:07:48;96403.81;;;14.59;33.00
44079;BME280;29744;49.078;12.878;2023-02-02T02:12:51;96399.84;;;14.56;32.71
44079;BME280;29744;49.078;12.878;2023-02-02T02:18:00;96393.19;;;14.54;32.86
44079;BME280;29744;49.078;12.878;2023-02-02T02:28:57;96385.94;;;14.45;32.77
44079;BME280;29744;49.078;12.878;2023-02-02T02:34:08;96402.13;;;14.45;32.74
44079;BME280;29744;49.078;12.878;2023-02-02T02:39:26;96412.44;;;14.43;33.07
44079;BME280;29744;49.078;12.878;2023-02-02T02:44:28;96444.34;;;14.41;32.92
44079;BME280;29744;49.078;12.878;2023-02-02T02:49:30;96442.28;;;14.38;33.05
44079;BME280;29744;49.078;12.878;2023-02-02T02:54:34;96444.19;;;14.38;32.99
44079;BME280;29744;49.078;12.878;2023-02-02T03:09:59;96438.19;;;14.32;32.94
44079;BME280;29744;49.078;12.878;2023-02-02T03:15:04;96440.41;;;14.30;33.21
44079;BME280;29744;49.078;12.878;2023-02-02T03:20:05;96437.25;;;14.28;33.09
44079;BME280;29744;49.078;12.878;2023-02-02T03:25:06;96432.16;;;14.27;33.06
44079;BME280;29744;49.078;12.878;2023-02-02T03:30:09;96437.09;;;14.25;33.02
44079;BME280;29744;49.078;12.878;2023-02-02T03:35:10;96442.03;;;14.23;33.50
44079;BME280;29744;49.078;12.878;2023-02-02T03:40:10;96449.59;;;14.21;33.22
44079;BME280;29744;49.078;12.878;2023-02-02T03:45:11;96431.06;;;14.19;33.14
44079;BME280;29744;49.078;12.878;2023-02-02T03:50:11;96453.75;;;14.18;33.41
44079;BME280;29744;49.078;12.878;2023-02-02T03:55:11;96459.44;;;14.16;33.09
44079;BME280;29744;49.078;12.878;2023-02-02T04:00:12;96440.91;;;14.15;33.14
44079;BME280;29744;49.078;12.878;2023-02-02T04:05:12;96435.03;;;14.13;33.19
44079;BME280;29744;49.078;12.878;2023-02-02T04:10:13;96429.97;;;14.11;33.06
44079;BME280;29744;49.078;12.878;2023-02-02T04:15:13;96447.25;;;14.10;33.23
44079;BME280;29744;49.078;12.878;2023-02-02T04:20:13;96460.25;;;14.08;33.41
44079;BME280;29744;49.078;12.878;2023-02-02T04:25:14;96464.06;;;14.07;33.47
44079;BME280;29744;49.078;12.878;2023-02-02T04:30:14;96456.28;;;14.06;33.41
44079;BME280;29744;49.078;12.878;2023-02-02T04:35:14;96470.88;;;14.05;33.82
44079;BME280;29744;49.078;12.878;2023-02-02T04:40:15;96469.31;;;14.04;33.36
44079;BME280;29744;49.078;12.878;2023-02-02T04:45:15;96476.28;;;14.05;33.41
44079;BME280;29744;49.078;12.878;2023-02-02T04:50:16;96474.06;;;14.07;33.52
44079;BME280;29744;49.078;12.878;2023-02-02T04:55:16;96473.09;;;14.11;33.25
44079;BME280;29744;49.078;12.878;2023-02-02T05:00:17;96479.59;;;14.19;33.48
44079;BME280;29744;49.078;12.878;2023-02-02T05:05:17;96483.88;;;14.29;33.54
44079;BME280;29744;49.078;12.878;2023-02-02T05:10:19;96492.91;;;14.41;33.12
44079;BME280;29744;49.078;12.878;2023-02-02T05:15:20;96500.03;;;14.55;33.28
44079;BME280;29744;49.078;12.878;2023-02-02T05:20:20;96506.81;;;14.69;33.27
44079;BME280;29744;49.078;12.878;2023-02-02T05:25:21;96519.31;;;14.82;33.10
44079;BME280;29744;49.078;12.878;2023-02-02T05:30:21;96535.44;;;15.00;33.35
44079;BME280;29744;49.078;12.878;2023-02-02T05:35:21;96551.94;;;15.16;33.13
44079;BME280;29744;49.078;12.878;2023-02-02T05:40:22;96552.66;;;15.33;32.71
44079;BME280;29744;49.078;12.878;2023-02-02T05:45:22;96541.28;;;15.49;32.94
44079;BME280;29744;49.078;12.878;2023-02-02T05:50:23;96546.56;;;15.66;32.86
44079;BME280;29744;49.078;12.878;2023-02-02T05:55:24;96554.94;;;15.82;32.52
44079;BME280;29744;49.078;12.878;2023-02-02T06:00:24;96558.63;;;15.98;32.63
44079;BME280;29744;49.078;12.878;2023-02-02T06:05:24;96557.25;;;16.13;32.75
44079;BME280;29744;49.078;12.878;2023-02-02T06:10:24;96554.25;;;16.26;32.60
44079;BME280;29744;49.078;12.878;2023-02-02T06:15:25;96550.47;;;16.39;32.15
44079;BME280;29744;49.078;12.878;2023-02-02T06:20:26;96581.91;;;16.53;31.84
44079;BME280;29744;49.078;12.878;2023-02-02T06:25:27;96561.78;;;16.62;32.43
44079;BME280;29744;49.078;12.878;2023-02-02T06:30:27;96560.91;;;16.70;31.74
44079;BME280;29744;49.078;12.878;2023-02-02T06:35:28;96545.25;;;16.76;31.94
44079;BME280;29744;49.078;12.878;2023-02-02T06:40:29;96560.47;;;16.81;31.86
44079;BME280;29744;49.078;12.878;2023-02-02T06:45:29;96569.53;;;16.85;31.55
44079;BME280;29744;49.078;12.878;2023-02-02T06:50:30;96585.44;;;16.86;31.85
44079;BME280;29744;49.078;12.878;2023-02-02T06:55:30;96580.03;;;16.86;31.93
44079;BME280;29744;49.078;12.878;2023-02-02T07:00:30;96590.84;;;16.86;31.65
44079;BME280;29744;49.078;12.878;2023-02-02T07:05:31;96595.47;;;16.86;31.35
44079;BME280;29744;49.078;12.878;2023-02-02T07:10:31;96591.53;;;16.83;31.46
44079;BME280;29744;49.078;12.878;2023-02-02T07:15:32;96595.69;;;16.81;31.79
44079;BME280;29744;49.078;12.878;2023-02-02T07:20:33;96605.28;;;16.78;31.59
44079;BME280;29744;49.078;12.878;2023-02-02T07:25:33;96624.09;;;16.75;31.75
44079;BME280;29744;49.078;12.878;2023-02-02T07:30:33;96611.22;;;16.71;31.66
44079;BME280;29744;49.078;12.878;2023-02-02T07:35:34;96618.44;;;16.67;31.63
44079;BME280;29744;49.078;12.878;2023-02-02T07:40:34;96624.06;;;16.62;31.93
44079;BME280;29744;49.078;12.878;2023-02-02T07:45:34;96635.56;;;16.59;31.51
44079;BME280;29744;49.078;12.878;2023-02-02T07:50:35;96634.94;;;16.54;32.00
44079;BME280;29744;49.078;12.878;2023-02-02T07:55:35;96652.97;;;16.50;31.47
44079;BME280;29744;49.078;12.878;2023-02-02T08:00:35;96644.72;;;16.46;31.50
44079;BME280;29744;49.078;12.878;2023-02-02T08:05:35;96648.41;;;16.41;32.01
44079;BME280;29744;49.078;12.878;2023-02-02T08:10:36;96636.97;;;16.36;32.12
44079;BME280;29744;49.078;12.878;2023-02-02T08:15:36;96643.38;;;16.31;31.92
44079;BME280;29744;49.078;12.878;2023-02-02T08:20:36;96636.25;;;16.27;31.83
44079;BME280;29744;49.078;12.878;2023-02-02T08:25:40;96646.47;;;16.21;32.17
44079;BME280;29744;49.078;12.878;2023-02-02T08:30:40;96660.19;;;16.16;31.79
44079;BME280;29744;49.078;12.878;2023-02-02T08:35:41;96661.97;;;16.12;32.07
44079;BME280;29744;49.078;12.878;2023-02-02T08:40:41;96663.28;;;16.06;32.37
44079;BME280;29744;49.078;12.878;2023-02-02T08:45:42;96650.72;;;16.01;31.75
44079;BME280;29744;49.078;12.878;2023-02-02T08:50:42;96654.09;;;15.98;31.89
44079;BME280;29744;49.078;12.878;2023-02-02T08:55:43;96656.00;;;15.98;31.90
44079;BME280;29744;49.078;12.878;2023-02-02T09:00:43;96657.44;;;15.95;32.10
44079;BME280;29744;49.078;12.878;2023-02-02T09:05:43;96672.09;;;15.94;31.98
44079;BME280;29744;49.078;12.878;2023-02-02T09:10:44;96680.88;;;15.91;32.10
44079;BME280;29744;49.078;12.878;2023-02-02T09:15:44;96683.91;;;15.90;31.70
44079;BME280;29744;49.078;12.878;2023-02-02T09:20:44;96687.56;;;15.85;31.42
44079;BME280;29744;49.078;12.878;2023-02-02T09:25:45;96681.22;;;15.81;31.64
44079;BME280;29744;49.078;12.878;2023-02-02T09:30:45;96690.28;;;15.76;31.03
44079;BME280;29744;49.078;12.878;2023-02-02T09:35:45;96699.06;;;15.73;31.08
44079;BME280;29744;49.078;12.878;2023-02-02T09:40:46;96702.72;;;15.69;31.14
44079;BME280;29744;49.078;12.878;2023-02-02T09:46:12;96695.59;;;15.64;31.41
44079;BME280;29744;49.078;12.878;2023-02-02T09:51:20;96699.88;;;15.65;31.67
44079;BME280;29744;49.078;12.878;2023-02-02T09:56:30;96699.88;;;15.65;31.47
44079;BME280;29744;49.078;12.878;2023-02-02T10:01:34;96709.91;;;15.65;31.67
44079;BME280;29744;49.078;12.878;2023-02-02T10:06:47;96717.53;;;15.63;31.60
44079;BME280;29744;49.078;12.878;2023-02-02T10:12:20;96717.06;;;15.61;31.51
44079;BME280;29744;49.078;12.878;2023-02-02T10:17:43;96723.44;;;15.56;31.90
44079;BME280;29744;49.078;12.878;2023-02-02T10:22:46;96714.06;;;15.54;31.70
44079;BME280;29744;49.078;12.878;2023-02-02T10:28:16;96723.63;;;15.51;31.52
44079;BME280;29744;49.078;12.878;2023-02-02T10:33:32;96719.19;;;15.46;31.56
44079;BME280;29744;49.078;12.878;2023-02-02T10:38:44;96719.84;;;15.43;31.59
44079;BME280;29744;49.078;12.878;2023-02-02T10:59:55;96716.84;;;15.28;32.37
44079;BME280;29744;49.078;12.878;2023-02-02T11:04:58;96719.41;;;15.24;32.05
44079;BME280;29744;49.078;12.878;2023-02-02T11:10:17;96713.06;;;15.20;32.31
44079;BME280;29744;49.078;12.878;2023-02-02T11:15:26;96712.56;;;15.18;32.38
44079;BME280;29744;49.078;12.878;2023-02-02T11:20:33;96717.03;;;15.14;32.24
44079;BME280;29744;49.078;12.878;2023-02-02T11:25:36;96712.28;;;15.11;32.02
44079;BME280;29744;49.078;12.878;2023-02-02T11:30:37;96710.22;;;15.08;32.05
44079;BME280;29744;49.078;12.878;2023-02-02T11:35:51;96707.34;;;15.04;32.08
44079;BME280;29744;49.078;12.878;2023-02-02T11:40:55;96706.06;;;15.02;32.15
44079;BME280;29744;49.078;12.878;2023-02-02T11:45:59;96709.41;;;14.99;32.45
44079;BME280;29744;49.078;12.878;2023-02-02T11:51:02;96710.03;;;14.96;32.61
44079;BME280;29744;49.078;12.878;2023-02-02T11:56:16;96704.47;;;14.92;32.40
44079;BME280;29744;49.078;12.878;2023-02-02T12:01:28;96707.03;;;14.89;32.23
44079;BME280;29744;49.078;12.878;2023-02-02T12:16:47;96708.63;;;14.81;32.84
44079;BME280;29744;49.078;12.878;2023-02-02T12:21:59;96710.06;;;14.78;32.67
44079;BME280;29744;49.078;12.878;2023-02-02T12:37:55;96698.47;;;14.69;32.62
44079;BME280;29744;49.078;12.878;2023-02-02T12:43:37;96695.91;;;14.64;32.83
44079;BME280;29744;49.078;12.878;2023-02-02T12:55:09;96709.88;;;14.58;32.65
44079;BME280;29744;49.078;12.878;2023-02-02T13:06:01;96708.13;;;14.53;33.34
44079;BME280;29744;49.078;12.878;2023-02-02T13:11:15;96717.81;;;14.54;33.33
44079;BME280;29744;49.078;12.878;2023-02-02T13:16:30;96715.75;;;14.51;33.14
44079;BME280;29744;49.078;12.878;2023-02-02T13:21:31;96712.59;;;14.49;32.98
44079;BME280;29744;49.078;12.878;2023-02-02T13:26:37;96717.97;;;14.49;33.24
44079;BME280;29744;49.078;12.878;2023-02-02T13:31:41;96716.72;;;14.46;33.33
44079;BME280;29744;49.078;12.878;2023-02-02T13:36:47;96720.53;;;14.45;33.40
44079;BME280;29744;49.078;12.878;2023-02-02T13:41:50;96724.63;;;14.43;33.18
44079;BME280;29744;49.078;12.878;2023-02-02T13:46:58;96733.06;;;14.41;32.96
44079;BME280;29744;49.078;12.878;2023-02-02T13:57:17;96734.31;;;14.35;33.27
44079;BME280;29744;49.078;12.878;2023-02-02T14:02:32;96749.69;;;14.35;33.04
44079;BME280;29744;49.078;12.878;2023-02-02T14:07:36;96753.50;;;14.34;33.38
44079;BME280;29744;49.078;12.878;2023-02-02T14:12:38;96761.91;;;14.32;33.03
44079;BME280;29744;49.078;12.878;2023-02-02T14:22:46;96780.63;;;14.29;33.30
44079;BME280;29744;49.078;12.878;2023-02-02T14:27:56;96781.25;;;14.26;33.34
44079;BME280;29744;49.078;12.878;2023-02-02T14:43:47;96807.56;;;14.20;33.37
44079;BME280;29744;49.078;12.878;2023-02-02T14:53:58;96814.69;;;14.16;33.44
44079;BME280;29744;49.078;12.878;2023-02-02T14:59:00;96823.09;;;14.14;33.46
44079;BME280;29744;49.078;12.878;2023-02-02T15:14:47;96839.72;;;14.08;33.48
44079;BME280;29744;49.078;12.878;2023-02-02T15:19:55;96848.91;;;14.07;33.83
44079;BME280;29744;49.078;12.878;2023-02-02T15:25:05;96842.72;;;14.06;33.79
44079;BME280;29744;49.078;12.878;2023-02-02T15:30:12;96860.31;;;14.04;33.89
44079;BME280;29744;49.078;12.878;2023-02-02T15:35:18;96866.81;;;14.03;33.38
44079;BME280;29744;49.078;12.878;2023-02-02T15:40:20;96877.06;;;13.92;33.53
44079;BME280;29744;49.078;12.878;2023-02-02T15:50:34;96902.00;;;13.98;33.72
44079;BME280;29744;49.078;12.878;2023-02-02T15:55:35;96902.78;;;13.98;33.99
44079;BME280;29744;49.078;12.878;2023-02-02T16:00:35;96907.69;;;13.96;33.57
44079;BME280;29744;49.078;12.878;2023-02-02T16:05:42;96925.78;;;13.96;33.98
44079;BME280;29744;49.078;12.878;2023-02-02T16:10:45;96936.56;;;13.96;33.46
44079;BME280;29744;49.078;12.878;2023-02-02T16:15:59;96951.63;;;13.97;33.98
44079;BME280;29744;49.078;12.878;2023-02-02T16:21:05;96953.72;;;14.00;34.00
44079;BME280;29744;49.078;12.878;2023-02-02T16:26:14;96965.19;;;14.05;33.46
44079;BME280;29744;49.078;12.878;2023-02-02T16:31:14;96975.53;;;14.12;33.83
44079;BME280;29744;49.078;12.878;2023-02-02T16:36:23;96984.47;;;14.21;33.59
44079;BME280;29744;49.078;12.878;2023-02-02T16:41:34;96994.75;;;14.33;33.75
44079;BME280;29744;49.078;12.878;2023-02-02T16:46:43;97005.47;;;14.46;33.45
44079;BME280;29744;49.078;12.878;2023-02-02T16:51:45;97007.44;;;14.63;33.63
44079;BME280;29744;49.078;12.878;2023-02-02T16:56:49;97009.75;;;14.78;33.17
44079;BME280;29744;49.078;12.878;2023-02-02T17:01:59;97022.03;;;14.93;33.09
44079;BME280;29744;49.078;12.878;2023-02-02T17:07:10;97032.94;;;15.10;33.02
44079;BME280;29744;49.078;12.878;2023-02-02T17:17:15;97034.16;;;15.44;32.82
44079;BME280;29744;49.078;12.878;2023-02-02T17:22:17;97048.50;;;15.62;32.88
44079;BME280;29744;49.078;12.878;2023-02-02T17:27:25;97040.41;;;15.79;32.49
44079;BME280;29744;49.078;12.878;2023-02-02T17:32:26;97044.25;;;15.95;32.92
44079;BME280;29744;49.078;12.878;2023-02-02T17:37:27;97061.59;;;16.12;32.76
44079;BME280;29744;49.078;12.878;2023-02-02T17:42:27;97061.91;;;16.27;32.42
44079;BME280;29744;49.078;12.878;2023-02-02T17:47:29;97079.28;;;16.44;32.37
44079;BME280;29744;49.078;12.878;2023-02-02T17:52:29;97076.44;;;16.57;32.29
44079;BME280;29744;49.078;12.878;2023-02-02T17:57:30;97090.13;;;16.69;32.13
44079;BME280;29744;49.078;12.878;2023-02-02T18:02:30;97100.28;;;16.81;32.28
44079;BME280;29744;49.078;12.878;2023-02-02T18:07:31;97100.75;;;16.92;31.93
44079;BME280;29744;49.078;12.878;2023-02-02T18:12:31;97106.13;;;17.00;32.17
44079;BME280;29744;49.078;12.878;2023-02-02T18:17:34;97123.47;;;17.08;31.90
44079;BME280;29744;49.078;12.878;2023-02-02T18:22:34;97128.72;;;17.13;31.75
44079;BME280;29744;49.078;12.878;2023-02-02T18:27:34;97134.63;;;17.15;31.80
44079;BME280;29744;49.078;12.878;2023-02-02T18:32:36;97129.69;;;17.17;31.37
44079;BME280;29744;49.078;12.878;2023-02-02T18:37:37;97126.97;;;17.17;31.65
44079;BME280;29744;49.078;12.878;2023-02-02T18:42:38;97141.31;;;17.18;31.80
44079;BME280;29744;49.078;12.878;2023-02-02T18:47:38;97142.75;;;17.15;31.87
44079;BME280;29744;49.078;12.878;2023-02-02T18:52:38;97135.75;;;17.14;31.35
44079;BME280;29744;49.078;12.878;2023-02-02T18:57:38;97137.19;;;17.12;31.75
44079;BME280;29744;49.078;12.878;2023-02-02T19:02:39;97125.88;;;17.10;31.65
44079;BME280;29744;49.078;12.878;2023-02-02T19:07:39;97133.53;;;17.08;31.75
44079;BME280;29744;49.078;12.878;2023-02-02T19:13:09;97138.31;;;17.02;31.21
44079;BME280;29744;49.078;12.878;2023-02-02T19:18:16;97156.50;;;17.01;31.80
44079;BME280;29744;49.078;12.878;2023-02-02T19:23:22;97159.53;;;17.00;31.27
44079;BME280;29744;49.078;12.878;2023-02-02T19:28:25;97160.97;;;16.97;31.69
44079;BME280;29744;49.078;12.878;2023-02-02T19:33:46;97162.41;;;16.95;31.45
44079;BME280;29744;49.078;12.878;2023-02-02T19:38:49;97165.91;;;16.95;31.28
44079;BME280;29744;49.078;12.878;2023-02-02T19:43:55;97160.81;;;16.94;31.68
44079;BME280;29744;49.078;12.878;2023-02-02T19:49:06;97164.66;;;16.93;31.62
44079;BME280;29744;49.078;12.878;2023-02-02T19:54:26;97169.13;;;16.89;31.87
44079;BME280;29744;49.078;12.878;2023-02-02T19:59:31;97183.44;;;16.89;31.57
44079;BME280;29744;49.078;12.878;2023-02-02T20:04:33;97186.47;;;16.88;31.92
44079;BME280;29744;49.078;12.878;2023-02-02T20:09:34;97193.81;;;16.87;31.53
44079;BME280;29744;49.078;12.878;2023-02-02T20:14:34;97196.84;;;16.86;31.74
44079;BME280;29744;49.078;12.878;2023-02-02T20:19:39;97186.00;;;16.86;31.75
44079;BME280;29744;49.078;12.878;2023-02-02T20:24:40;97196.38;;;16.84;31.56
44079;BME280;29744;49.078;12.878;2023-02-02T20:29:43;97192.88;;;16.83;31.28
44079;BME280;29744;49.078;12.878;2023-02-02T20:34:44;97199.72;;;16.81;31.63
44079;BME280;29744;49.078;12.878;2023-02-02T20:39:59;97207.38;;;16.79;31.87
44079;BME280;29744;49.078;12.878;2023-02-02T20:45:00;97208.16;;;16.79;31.65
44079;BME280;29744;49.078;12.878;2023-02-02T20:50:00;97219.00;;;16.79;31.96
44079;BME280;29744;49.078;12.878;2023-02-02T20:55:03;97209.28;;;16.78;32.04
44079;BME280;29744;49.078;12.878;2023-02-02T21:00:09;97209.59;;;16.77;31.94
44079;BME280;29744;49.078;12.878;2023-02-02T21:05:09;97221.53;;;16.76;32.02
44079;BME280;29744;49.078;12.878;2023-02-02T21:10:10;97218.84;;;16.76;31.77
44079;BME280;29744;49.078;12.878;2023-02-02T21:15:10;97217.56;;;16.73;31.51
44079;BME280;29744;49.078;12.878;2023-02-02T21:20:12;97219.47;;;16.72;32.02
44079;BME280;29744;49.078;12.878;2023-02-02T21:25:12;97226.31;;;16.70;31.60
44079;BME280;29744;49.078;12.878;2023-02-02T21:30:13;97226.66;;;16.68;31.68
44079;BME280;29744;49.078;12.878;2023-02-02T21:35:13;97243.53;;;16.65;31.79
44079;BME280;29744;49.078;12.878;2023-02-02T21:40:18;97242.56;;;16.61;31.56
44079;BME280;29744;49.078;12.878;2023-02-02T21:50:27;97242.25;;;16.54;32.17
44079;BME280;29744;49.078;12.878;2023-02-02T21:55:33;97250.19;;;16.51;31.68
44079;BME280;29744;49.078;12.878;2023-02-02T22:00:35;97248.41;;;16.46;31.88
44079;BME280;29744;49.078;12.878;2023-02-02T22:05:35;97254.47;;;16.43;32.25
44079;BME280;29744;49.078;12.878;2023-02-02T22:10:38;97251.88;;;16.38;32.22
44079;BME280;29744;49.078;12.878;2023-02-02T22:15:38;97253.63;;;16.34;32.25
44079;BME280;29744;49.078;12.878;2023-02-02T22:20:39;97250.75;;;16.30;32.30
44079;BME280;29744;49.078;12.878;2023-02-02T22:25:43;97247.38;;;16.25;32.21
44079;BME280;29744;49.078;12.878;2023-02-02T22:30:44;97249.44;;;16.19;32.17
44079;BME280;29744;49.078;12.878;2023-02-02T22:35:45;97251.19;;;16.15;32.47
44079;BME280;29744;49.078;12.878;2023-02-02T22:40:46;97257.53;;;16.10;32.40
44079;BME280;29744;49.078;12.878;2023-02-02T22:45:47;97247.66;;;16.06;32.40
44079;BME280;29744;49.078;12.878;2023-02-02T22:50:48;97245.88;;;16.01;32.19
44079;BME280;29744;49.078;12.878;2023-02-02T22:55:48;97243.31;;;15.96;32.20
44079;BME280;29744;49.078;12.878;2023-02-02T23:00:55;97252.34;;;15.83;32.62
44079;BME280;29744;49.078;12.878;2023-02-02T23:05:55;97246.63;;;15.85;32.21
44079;BME280;29744;49.078;12.878;2023-02-02T23:10:55;97249.16;;;15.81;32.71
44079;BME280;29744;49.078;12.878;2023-02-02T23:15:56;97249.75;;;15.78;32.22
44079;BME280;29744;49.078;12.878;2023-02-02T23:20:56;97244.16;;;15.74;32.17
44079;BME280;29744;49.078;12.878;2023-02-02T23:25:56;97245.09;;;15.70;32.79
44079;BME280;29744;49.078;12.878;2023-02-02T23:30:56;97232.22;;;15.67;32.58
44079;BME280;29744;49.078;12.878;2023-02-02T23:35:58;97231.22;;;15.63;32.42
44079;BME280;29744;49.078;12.878;2023-02-02T23:40:58;97218.34;;;15.60;32.29
44079;BME280;29744;49.078;12.878;2023-02-02T23:45:59;97226.59;;;15.55;32.43
44079;BME280;29744;49.078;12.878;2023-02-02T23:51:00;97229.09;;;15.51;32.89
44079;BME280;29744;49.078;12.878;2023-02-02T23:56:00;97224.31;;;15.48;32.94
